createdAt,value
2018-08-25T00:00:06.941Z,96.14
2018-08-25T00:02:36.899Z,95.92
2018-08-25T00:05:11.987Z,95.64
2018-08-25T00:07:51.382Z,96.10
2018-08-25T00:10:21.240Z,96.21
2018-08-25T00:12:51.396Z,95.68
2018-08-25T00:15:21.222Z,96.42
2018-08-25T00:17:54.241Z,96.45
2018-08-25T00:20:24.039Z,95.80
2018-08-25T00:22:55.301Z,95.79
2018-08-25T00:25:25.227Z,95.73
2018-08-25T00:27:56.979Z,95.75
2018-08-25T00:30:31.641Z,95.86
2018-08-25T00:33:01.780Z,95.65
2018-08-25T00:35:32.678Z,95.67
2018-08-25T00:38:02.555Z,95.74
2018-08-25T00:40:32.238Z,96.18
2018-08-25T00:43:02.259Z,95.18
2018-08-25T00:45:34.207Z,95.94
2018-08-25T00:48:04.158Z,96.10
2018-08-25T00:50:34.299Z,95.63
2018-08-25T00:53:04.220Z,95.19
2018-08-25T00:55:38.280Z,95.29
2018-08-25T00:58:08.619Z,95.95
2018-08-25T01:00:38.699Z,94.70
2018-08-25T01:03:08.599Z,95.38
2018-08-25T01:05:49.799Z,95.45
2018-08-25T01:08:20.046Z,95.04
2018-08-25T01:10:50.221Z,95.47
2018-08-25T01:13:25.079Z,95.88
2018-08-25T01:15:55.078Z,95.78
2018-08-25T01:18:25.538Z,96.42
2018-08-25T01:20:55.218Z,95.53
2018-08-25T01:23:25.218Z,96.52
2018-08-25T01:25:55.005Z,96.57
2018-08-25T01:28:25.006Z,95.87
2018-08-25T01:30:55.318Z,96.05
2018-08-25T01:33:25.037Z,95.99
2018-08-25T01:35:55.347Z,96.82
2018-08-25T01:38:25.481Z,96.90
2018-08-25T01:40:55.206Z,96.54
2018-08-25T01:43:26.605Z,96.57
2018-08-25T01:45:56.998Z,96.66
2018-08-25T01:48:26.825Z,95.52
2018-08-25T01:50:56.518Z,96.21
2018-08-25T01:53:26.397Z,95.89
2018-08-25T01:55:56.085Z,96.01
2018-08-25T01:58:25.997Z,96.55
2018-08-25T02:00:57.898Z,96.27
2018-08-25T02:03:30.563Z,96.23
2018-08-25T02:06:00.498Z,96.44
2018-08-25T02:08:30.317Z,95.84
2018-08-25T02:11:00.097Z,95.90
2018-08-25T02:13:29.957Z,95.98
2018-08-25T02:16:01.097Z,96.10
2018-08-25T02:18:31.017Z,96.43
2018-08-25T02:21:00.677Z,96.48
2018-08-25T02:23:30.437Z,95.95
2018-08-25T02:26:03.277Z,97.07
2018-08-25T02:28:33.198Z,96.23
2018-08-25T02:31:02.897Z,96.53
2018-08-25T02:33:33.117Z,96.47
2018-08-25T02:36:05.082Z,95.96
2018-08-25T02:38:35.470Z,96.92
2018-08-25T02:41:05.837Z,97.02
2018-08-25T02:43:38.543Z,96.92
2018-08-25T02:46:09.177Z,97.07
2018-08-25T02:48:39.137Z,96.75
2018-08-25T02:51:09.137Z,96.37
2018-08-25T02:53:39.018Z,96.58
2018-08-25T02:56:11.778Z,96.63
2018-08-25T02:58:42.013Z,96.93
2018-08-25T03:01:11.875Z,96.97
2018-08-25T03:03:49.358Z,96.43
2018-08-25T03:06:19.078Z,96.47
2018-08-25T03:08:48.939Z,97.01
2018-08-25T03:11:18.598Z,96.15
2018-08-25T03:13:58.105Z,96.43
2018-08-25T03:16:27.918Z,97.00
2018-08-25T03:18:57.842Z,96.33
2018-08-25T03:21:28.486Z,96.38
2018-08-25T03:23:58.598Z,96.41
2018-08-25T03:26:28.358Z,96.80
2018-08-25T03:28:58.718Z,96.04
2018-08-25T03:31:28.907Z,96.26
2018-08-25T03:34:06.598Z,96.11
2018-08-25T03:36:36.439Z,96.30
2018-08-25T03:39:09.758Z,96.41
2018-08-25T03:41:42.538Z,95.96
2018-08-25T03:44:12.921Z,96.38
2018-08-25T03:46:43.088Z,96.86
2018-08-25T03:49:12.940Z,96.54
2018-08-25T03:51:42.920Z,96.16
2018-08-25T03:54:12.987Z,95.95
2018-08-25T03:56:42.760Z,96.12
2018-08-25T03:59:14.103Z,96.47
2018-08-25T04:01:43.917Z,96.25
2018-08-25T04:04:16.479Z,95.85
2018-08-25T04:06:46.340Z,96.11
2018-08-25T04:09:17.867Z,96.56
2018-08-25T04:11:59.020Z,96.76
2018-08-25T04:14:28.787Z,96.46
2018-08-25T04:16:59.504Z,96.30
2018-08-25T04:19:43.208Z,96.34
2018-08-25T04:22:13.658Z,95.79
2018-08-25T04:24:43.447Z,95.60
2018-08-25T04:27:13.280Z,95.53
2018-08-25T04:29:42.901Z,95.75
2018-08-25T04:32:13.021Z,95.77
2018-08-25T04:34:42.780Z,96.50
2018-08-25T04:37:12.673Z,95.67
2018-08-25T04:39:46.761Z,96.35
2018-08-25T04:42:16.747Z,96.10
2018-08-25T04:44:46.460Z,96.55
2018-08-25T04:47:16.383Z,95.67
2018-08-25T04:49:46.640Z,95.64
2018-08-25T04:52:16.840Z,95.86
2018-08-25T04:54:47.240Z,95.92
2018-08-25T04:57:17.075Z,96.36
2018-08-25T04:59:49.240Z,96.61
2018-08-25T05:02:19.121Z,96.63
2018-08-25T05:04:49.020Z,96.59
2018-08-25T05:07:20.460Z,96.14
2018-08-25T05:09:51.720Z,96.70
2018-08-25T05:12:22.402Z,96.89
2018-08-25T05:14:52.802Z,96.86
2018-08-25T05:17:26.379Z,95.94
2018-08-25T05:20:03.162Z,96.07
2018-08-25T05:22:32.921Z,96.09
2018-08-25T05:25:02.640Z,95.41
2018-08-25T05:27:32.400Z,95.31
2018-08-25T05:30:02.541Z,95.34
2018-08-25T05:32:32.360Z,95.69
2018-08-25T05:35:02.143Z,95.57
2018-08-25T05:37:54.906Z,95.44
2018-08-25T05:40:25.240Z,94.66
2018-08-25T05:42:55.262Z,94.33
2018-08-25T05:45:25.703Z,95.17
2018-08-25T05:47:58.292Z,94.84
2018-08-25T05:50:28.078Z,95.74
2018-08-25T05:52:58.011Z,96.03
2018-08-25T05:55:27.989Z,95.19
2018-08-25T05:57:58.211Z,95.47
2018-08-25T06:00:27.983Z,95.59
2018-08-25T06:02:57.807Z,94.83
2018-08-25T06:05:28.182Z,94.32
2018-08-25T06:07:58.372Z,94.98
2018-08-25T06:10:28.442Z,94.62
2018-08-25T06:12:58.493Z,95.18
2018-08-25T06:15:28.338Z,95.04
2018-08-25T06:17:58.682Z,94.90
2018-08-25T06:20:28.496Z,95.11
2018-08-25T06:22:58.541Z,94.62
2018-08-25T06:25:28.274Z,95.66
2018-08-25T06:27:58.532Z,95.00
2018-08-25T06:30:28.407Z,95.60
2018-08-25T06:32:58.123Z,95.94
2018-08-25T06:35:29.476Z,95.85
2018-08-25T06:38:00.717Z,95.46
2018-08-25T06:40:31.215Z,95.73
2018-08-25T06:43:00.994Z,95.05
2018-08-25T06:45:30.657Z,94.63
2018-08-25T06:48:00.415Z,94.74
2018-08-25T06:50:30.275Z,95.34
2018-08-25T06:53:00.061Z,95.62
2018-08-25T06:55:29.816Z,95.67
2018-08-25T06:57:59.643Z,95.61
2018-08-25T07:00:29.319Z,94.15
2018-08-25T07:02:59.073Z,95.17
2018-08-25T07:05:28.845Z,94.91
2018-08-25T07:07:59.234Z,94.70
2018-08-25T07:10:28.962Z,94.70
2018-08-25T07:12:58.852Z,94.33
2018-08-25T07:15:28.615Z,93.99
2018-08-25T07:17:58.433Z,94.25
2018-08-25T07:20:28.038Z,94.24
2018-08-25T07:22:57.795Z,94.20
2018-08-25T07:25:27.555Z,94.04
2018-08-25T07:27:58.435Z,93.53
2018-08-25T07:30:28.128Z,94.07
2018-08-25T07:32:59.103Z,94.37
2018-08-25T07:35:28.803Z,95.54
2018-08-25T07:37:58.507Z,95.56
2018-08-25T07:40:28.366Z,95.27
2018-08-25T07:42:59.006Z,94.84
2018-08-25T07:45:28.924Z,95.72
2018-08-25T07:47:58.617Z,95.69
2018-08-25T07:50:28.467Z,94.96
2018-08-25T07:52:58.480Z,94.87
2018-08-25T07:55:28.598Z,96.18
2018-08-25T07:57:58.300Z,95.23
2018-08-25T08:00:28.090Z,95.07
2018-08-25T08:02:59.001Z,95.19
2018-08-25T08:05:28.854Z,95.19
2018-08-25T08:07:58.604Z,95.34
2018-08-25T08:10:28.445Z,95.59
2018-08-25T08:12:58.768Z,95.49
2018-08-25T08:15:28.781Z,95.47
2018-08-25T08:17:58.420Z,95.29
2018-08-25T08:20:28.860Z,94.28
2018-08-25T08:22:58.781Z,93.93
2018-08-25T08:25:28.651Z,93.96
2018-08-25T08:27:58.181Z,93.36
2018-08-25T08:30:28.013Z,92.74
2018-08-25T08:32:57.787Z,93.22
2018-08-25T08:35:27.658Z,93.85
2018-08-25T08:37:57.492Z,93.30
2018-08-25T08:40:27.432Z,93.17
2018-08-25T08:42:57.155Z,93.38
2018-08-25T08:45:26.954Z,92.09
2018-08-25T08:47:56.751Z,93.85
2018-08-25T08:50:26.953Z,93.55
2018-08-25T08:52:56.825Z,93.06
2018-08-25T08:55:26.611Z,93.13
2018-08-25T08:57:56.344Z,92.85
2018-08-25T09:00:26.193Z,93.07
2018-08-25T09:02:55.948Z,93.27
2018-08-25T09:05:25.817Z,90.89
2018-08-25T09:08:07.610Z,92.69
2018-08-25T09:10:43.801Z,93.61
2018-08-25T09:13:14.496Z,93.11
2018-08-25T09:15:45.324Z,94.56
2018-08-25T09:18:15.717Z,94.61
2018-08-25T09:20:45.796Z,93.91
2018-08-25T09:23:15.603Z,94.07
2018-08-25T09:25:45.849Z,94.10
2018-08-25T09:28:16.136Z,94.14
2018-08-25T09:30:45.892Z,94.15
2018-08-25T09:33:15.584Z,93.99
2018-08-25T09:35:45.406Z,93.80
2018-08-25T09:38:15.204Z,93.96
2018-08-25T09:40:44.985Z,93.94
2018-08-25T09:43:14.665Z,94.82
2018-08-25T09:45:44.450Z,94.18
2018-08-25T09:48:14.175Z,94.30
2018-08-25T09:50:43.908Z,93.47
2018-08-25T09:53:13.667Z,94.36
2018-08-25T09:55:43.627Z,94.51
2018-08-25T09:58:13.572Z,94.73
2018-08-25T10:00:43.565Z,94.61
2018-08-25T10:03:13.325Z,94.36
2018-08-25T10:05:44.458Z,95.22
2018-08-25T10:08:14.325Z,95.80
2018-08-25T10:10:44.204Z,94.99
2018-08-25T10:13:14.034Z,94.07
2018-08-25T10:15:43.892Z,93.42
2018-08-25T10:18:13.616Z,89.37
2018-08-25T10:20:43.600Z,92.04
2018-08-25T10:23:13.457Z,92.57
2018-08-25T10:25:43.320Z,89.63
2018-08-25T10:28:13.168Z,92.42
2018-08-25T10:30:42.962Z,93.07
2018-08-25T10:33:12.749Z,93.02
2018-08-25T10:35:42.666Z,93.10
2018-08-25T10:38:12.368Z,93.57
2018-08-25T10:40:42.141Z,93.14
2018-08-25T10:43:11.788Z,93.64
2018-08-25T10:45:41.620Z,93.92
2018-08-25T10:48:11.443Z,94.87
2018-08-25T10:50:41.227Z,95.26
2018-08-25T10:53:10.880Z,95.26
2018-08-25T10:55:40.889Z,93.68
2018-08-25T10:58:10.622Z,93.19
2018-08-25T11:00:40.565Z,92.08
2018-08-25T11:03:10.318Z,92.45
2018-08-25T11:05:40.324Z,92.97
2018-08-25T11:08:10.076Z,91.76
2018-08-25T11:10:39.857Z,90.69
2018-08-25T11:13:09.733Z,90.87
2018-08-25T11:15:39.539Z,91.58
2018-08-25T11:18:09.338Z,90.69
2018-08-25T11:20:39.017Z,91.70
2018-08-25T11:23:08.700Z,93.42
2018-08-25T11:25:38.517Z,93.77
2018-08-25T11:28:08.330Z,94.40
2018-08-25T11:30:38.105Z,93.99
2018-08-25T11:33:08.417Z,92.55
2018-08-25T11:35:38.294Z,94.15
2018-08-25T11:38:08.098Z,93.89
2018-08-25T11:40:37.963Z,94.41
2018-08-25T11:43:07.753Z,94.89
2018-08-25T11:45:37.524Z,94.40
2018-08-25T11:48:07.251Z,94.90
2018-08-25T11:50:37.044Z,93.49
2018-08-25T11:53:07.306Z,93.86
2018-08-25T11:55:37.200Z,91.07
2018-08-25T11:58:06.918Z,91.94
2018-08-25T12:00:36.759Z,94.18
2018-08-25T12:03:07.027Z,91.07
2018-08-25T12:05:36.709Z,91.02
2018-08-25T12:08:06.429Z,92.93
2018-08-25T12:10:36.249Z,92.69
2018-08-25T12:13:06.217Z,93.22
2018-08-25T12:15:36.013Z,92.04
2018-08-25T12:18:05.769Z,93.05
2018-08-25T12:20:35.712Z,93.45
2018-08-25T12:23:05.717Z,94.09
2018-08-25T12:25:35.479Z,92.87
2018-08-25T12:28:05.107Z,92.29
2018-08-25T12:30:34.844Z,92.86
2018-08-25T12:33:04.587Z,92.25
2018-08-25T12:35:34.427Z,91.00
2018-08-25T12:38:04.220Z,88.32
2018-08-25T12:40:34.180Z,89.30
2018-08-25T12:43:03.966Z,88.55
2018-08-25T12:45:33.917Z,88.73
2018-08-25T12:48:03.556Z,88.93
2018-08-25T12:50:33.437Z,89.80
2018-08-25T12:53:03.278Z,90.99
2018-08-25T12:55:34.420Z,88.90
2018-08-25T12:58:04.210Z,88.16
2018-08-25T13:00:34.109Z,90.23
2018-08-25T13:03:03.615Z,89.74
2018-08-25T13:05:33.068Z,90.85
2018-08-25T13:08:02.908Z,92.93
2018-08-25T13:10:33.958Z,90.73
2018-08-25T13:13:03.941Z,87.98
2018-08-25T13:15:33.425Z,89.71
2018-08-25T13:18:03.097Z,90.88
2018-08-25T13:20:32.530Z,89.81
2018-08-25T13:23:01.895Z,89.34
2018-08-25T13:25:31.815Z,90.56
2018-08-25T13:28:01.337Z,90.07
2018-08-25T13:30:30.893Z,89.49
2018-08-25T13:33:01.008Z,90.61
2018-08-25T13:35:30.595Z,90.99
2018-08-25T13:38:00.279Z,90.00
2018-08-25T13:40:29.773Z,90.15
2018-08-25T13:42:59.727Z,90.74
2018-08-25T13:45:29.258Z,89.91
2018-08-25T13:47:59.426Z,89.71
2018-08-25T13:50:28.901Z,87.96
2018-08-25T13:52:58.647Z,89.00
2018-08-25T13:55:28.197Z,90.44
2018-08-25T13:57:57.770Z,87.53
2018-08-25T14:00:27.228Z,86.38
2018-08-25T14:02:57.477Z,87.37
2018-08-25T14:05:27.232Z,87.07
2018-08-25T14:07:56.990Z,86.92
2018-08-25T14:10:26.359Z,88.39
2018-08-25T14:12:56.590Z,86.74
2018-08-25T14:15:26.037Z,87.47
2018-08-25T14:17:56.333Z,89.37
2018-08-25T14:20:26.667Z,90.03
2018-08-25T14:22:56.904Z,90.08
2018-08-25T14:25:26.261Z,89.77
2018-08-25T14:27:56.226Z,90.17
2018-08-25T14:30:25.669Z,90.16
2018-08-25T14:32:57.898Z,90.32
2018-08-25T14:35:27.812Z,91.08
2018-08-25T14:38:03.002Z,89.94
2018-08-25T14:40:35.565Z,90.21
2018-08-25T14:43:05.463Z,91.21
2018-08-25T14:45:35.526Z,91.86
2018-08-25T14:48:05.140Z,92.24
2018-08-25T14:50:34.794Z,92.38
2018-08-25T14:53:04.599Z,92.12
2018-08-25T14:55:33.885Z,93.38
2018-08-25T14:58:04.309Z,92.92
2018-08-25T15:00:34.071Z,93.55
2018-08-25T15:03:05.270Z,92.86
2018-08-25T15:05:35.553Z,92.82
2018-08-25T15:08:05.845Z,92.77
2018-08-25T15:10:35.273Z,93.98
2018-08-25T15:13:04.911Z,93.56
2018-08-25T15:15:34.211Z,93.40
2018-08-25T15:18:03.470Z,93.31
2018-08-25T15:20:32.826Z,93.42
2018-08-25T15:23:02.086Z,91.70
2018-08-25T15:25:31.422Z,91.87
2018-08-25T15:28:00.762Z,93.05
2018-08-25T15:30:29.932Z,92.76
2018-08-25T15:33:00.203Z,93.59
2018-08-25T15:35:29.542Z,93.97
2018-08-25T15:37:58.772Z,93.97
2018-08-25T15:40:28.558Z,94.28
2018-08-25T15:42:57.971Z,94.06
2018-08-25T15:45:28.462Z,94.61
2018-08-25T15:47:57.952Z,93.86
2018-08-25T15:50:27.527Z,94.27
2018-08-25T15:52:56.907Z,94.54
2018-08-25T15:55:26.508Z,94.15
2018-08-25T15:57:56.114Z,95.78
2018-08-25T16:00:25.393Z,94.66
2018-08-25T16:02:54.633Z,94.60
2018-08-25T16:05:24.076Z,94.51
2018-08-25T16:07:53.677Z,94.66
2018-08-25T16:10:23.272Z,94.26
2018-08-25T16:12:52.428Z,93.66
2018-08-25T16:15:21.729Z,94.31
2018-08-25T16:17:50.877Z,94.39
2018-08-25T16:20:20.245Z,94.07
2018-08-25T16:22:49.465Z,94.80
2018-08-25T16:25:19.269Z,95.75
2018-08-25T16:27:48.609Z,95.31
2018-08-25T16:30:18.313Z,95.24
2018-08-25T16:32:47.924Z,94.75
2018-08-25T16:35:18.856Z,94.64
2018-08-25T16:37:48.043Z,94.47
2018-08-25T16:40:17.929Z,94.14
2018-08-25T16:42:47.253Z,94.41
2018-08-25T16:45:18.521Z,94.64
2018-08-25T16:47:48.025Z,94.37
2018-08-25T16:50:17.561Z,93.52
2018-08-25T16:52:46.961Z,94.18
2018-08-25T16:55:16.573Z,94.28
2018-08-25T16:57:46.032Z,94.63
2018-08-25T17:00:16.190Z,94.47
2018-08-25T17:02:45.787Z,95.75
2018-08-25T17:05:15.787Z,94.65
2018-08-25T17:07:45.219Z,95.39
2018-08-25T17:10:14.746Z,94.67
2018-08-25T17:12:44.216Z,95.50
2018-08-25T17:15:13.830Z,95.38
2018-08-25T17:17:43.263Z,95.40
2018-08-25T17:20:12.823Z,95.24
2018-08-25T17:22:42.423Z,96.03
2018-08-25T17:25:11.965Z,95.55
2018-08-25T17:27:41.862Z,95.52
2018-08-25T17:30:11.516Z,95.47
2018-08-25T17:32:41.167Z,94.73
2018-08-25T17:35:10.685Z,95.74
2018-08-25T17:37:40.125Z,94.64
2018-08-25T17:40:09.771Z,95.48
2018-08-25T17:42:39.365Z,95.18
2018-08-25T17:45:09.374Z,95.15
2018-08-25T17:47:38.845Z,95.26
2018-08-25T17:50:08.500Z,95.00
2018-08-25T17:52:38.169Z,95.64
2018-08-25T17:55:07.815Z,95.66
2018-08-25T17:57:37.483Z,95.94
2018-08-25T18:00:08.559Z,95.11
2018-08-25T18:02:38.028Z,96.14
2018-08-25T18:05:08.428Z,95.32
2018-08-25T18:07:39.122Z,96.53
2018-08-25T18:10:08.848Z,95.83
2018-08-25T18:12:38.409Z,96.20
2018-08-25T18:15:09.158Z,96.67
2018-08-25T18:17:39.339Z,95.96
2018-08-25T18:20:08.755Z,94.96
2018-08-25T18:22:38.233Z,95.67
2018-08-25T18:25:07.848Z,95.78
2018-08-25T18:27:37.366Z,94.94
2018-08-25T18:30:07.524Z,95.14
2018-08-25T18:32:37.075Z,95.58
2018-08-25T18:35:06.833Z,95.93
2018-08-25T18:37:36.452Z,95.42
2018-08-25T18:40:06.015Z,95.43
2018-08-25T18:42:35.488Z,95.38
2018-08-25T18:45:05.134Z,95.66
2018-08-25T18:47:34.698Z,96.35
2018-08-25T18:50:04.309Z,96.40
2018-08-25T18:52:33.806Z,96.18
2018-08-25T18:55:03.556Z,96.06
2018-08-25T18:57:33.093Z,95.85
2018-08-25T19:00:02.526Z,96.70
2018-08-25T19:02:32.114Z,96.19
2018-08-25T19:05:01.788Z,95.42
2018-08-25T19:07:31.353Z,95.68
2018-08-25T19:10:01.176Z,96.60
2018-08-25T19:12:30.927Z,96.66
2018-08-25T19:15:00.465Z,96.10
2018-08-25T19:17:29.885Z,96.51
2018-08-25T19:19:59.517Z,96.52
2018-08-25T19:22:28.926Z,97.09
2018-08-25T19:24:58.597Z,97.09
2018-08-25T19:27:28.206Z,96.77
2018-08-25T19:29:57.788Z,96.49
2018-08-25T19:32:27.234Z,96.87
2018-08-25T19:34:56.960Z,96.21
2018-08-25T19:37:26.360Z,95.85
2018-08-25T19:39:55.995Z,96.19
2018-08-25T19:42:25.494Z,95.86
2018-08-25T19:44:55.068Z,95.01
2018-08-25T19:47:24.589Z,95.87
2018-08-25T19:49:54.684Z,96.23
2018-08-25T19:52:24.315Z,95.66
2018-08-25T19:54:54.046Z,95.36
2018-08-25T19:57:23.776Z,95.34
2018-08-25T19:59:53.473Z,95.41
2018-08-25T20:02:23.575Z,94.35
2018-08-25T20:04:53.165Z,94.12
2018-08-25T20:07:22.818Z,93.98
2018-08-25T20:09:52.531Z,94.53
2018-08-25T20:12:21.943Z,94.68
2018-08-25T20:14:51.572Z,93.08
2018-08-25T20:17:21.643Z,92.84
2018-08-25T20:19:51.263Z,93.22
2018-08-25T20:22:20.911Z,92.75
2018-08-25T20:24:50.451Z,93.50
2018-08-25T20:27:19.971Z,94.28
2018-08-25T20:29:49.523Z,94.31
2018-08-25T20:32:19.059Z,95.07
2018-08-25T20:34:48.529Z,94.42
2018-08-25T20:37:18.042Z,94.64
2018-08-25T20:39:47.791Z,94.66
2018-08-25T20:42:17.429Z,95.09
2018-08-25T20:44:46.948Z,95.04
2018-08-25T20:47:16.528Z,94.77
2018-08-25T20:49:46.867Z,96.01
2018-08-25T20:52:16.362Z,95.93
2018-08-25T20:54:47.353Z,95.40
2018-08-25T20:57:16.890Z,94.97
2018-08-25T20:59:46.731Z,95.24
2018-08-25T21:02:16.810Z,95.43
2018-08-25T21:04:47.180Z,95.22
2018-08-25T21:07:16.866Z,95.67
2018-08-25T21:09:46.396Z,96.00
2018-08-25T21:12:15.932Z,95.70
2018-08-25T21:14:45.822Z,95.56
2018-08-25T21:17:15.606Z,96.03
2018-08-25T21:19:45.064Z,95.69
2018-08-25T21:22:15.280Z,96.30
2018-08-25T21:24:44.716Z,95.86
2018-08-25T21:27:14.295Z,95.81
2018-08-25T21:29:43.804Z,95.94
2018-08-25T21:32:13.316Z,96.39
2018-08-25T21:34:42.748Z,95.78
2018-08-25T21:37:12.570Z,95.91
2018-08-25T21:39:42.103Z,96.09
2018-08-25T21:42:11.519Z,95.84
2018-08-25T21:44:40.900Z,96.21
2018-08-25T21:47:11.262Z,96.21
2018-08-25T21:49:40.854Z,95.60
2018-08-25T21:52:10.382Z,95.89
2018-08-25T21:54:39.814Z,95.99
2018-08-25T21:57:09.361Z,96.09
2018-08-25T21:59:38.842Z,96.20
2018-08-25T22:02:09.218Z,96.14
2018-08-25T22:04:39.026Z,96.15
2018-08-25T22:07:08.929Z,96.14
2018-08-25T22:09:38.569Z,95.94
2018-08-25T22:12:08.321Z,96.82
2018-08-25T22:14:37.724Z,96.49
2018-08-25T22:17:07.965Z,96.05
2018-08-25T22:19:37.482Z,96.44
2018-08-25T22:22:07.242Z,96.29
2018-08-25T22:24:36.729Z,96.12
2018-08-25T22:27:06.326Z,96.38
2018-08-25T22:29:35.682Z,96.49
2018-08-25T22:32:05.331Z,96.59
2018-08-25T22:34:34.772Z,96.51
2018-08-25T22:37:04.194Z,96.12
2018-08-25T22:39:33.593Z,95.59
2018-08-25T22:42:03.097Z,96.29
2018-08-25T22:44:32.509Z,96.43
2018-08-25T22:47:01.951Z,96.75
2018-08-25T22:49:32.379Z,96.63
2018-08-25T22:52:01.933Z,96.35
2018-08-25T22:54:31.454Z,96.72
2018-08-25T22:57:01.099Z,96.73
2018-08-25T22:59:30.504Z,96.47
2018-08-25T23:02:00.031Z,96.67
2018-08-25T23:04:29.426Z,96.10
2018-08-25T23:06:58.991Z,96.53
2018-08-25T23:09:28.452Z,96.50
2018-08-25T23:11:57.969Z,96.57
2018-08-25T23:14:27.464Z,96.40
2018-08-25T23:16:58.112Z,96.66
2018-08-25T23:19:27.544Z,96.84
2018-08-25T23:21:56.985Z,96.72
2018-08-25T23:24:26.445Z,96.76
2018-08-25T23:26:55.845Z,97.01
2018-08-25T23:29:25.312Z,96.87
2018-08-25T23:31:54.793Z,96.32
2018-08-25T23:34:24.213Z,96.36
2018-08-25T23:36:53.705Z,96.18
2018-08-25T23:39:23.145Z,96.31
2018-08-25T23:41:52.667Z,96.30
2018-08-25T23:44:22.165Z,96.17
2018-08-25T23:46:51.780Z,96.24
2018-08-25T23:49:21.245Z,96.71
2018-08-25T23:51:51.165Z,96.50
2018-08-25T23:54:20.933Z,96.68
2018-08-25T23:56:50.374Z,96.61
2018-08-25T23:59:19.910Z,96.67
